createdAt,value
2019-04-21T00:01:30.664Z,13.17
2019-04-21T00:04:15.663Z,13.60
2019-04-21T00:06:48.053Z,13.93
2019-04-21T00:09:24.273Z,11.03
2019-04-21T00:11:49.637Z,13.53
2019-04-21T00:14:14.141Z,19.47
2019-04-21T00:16:40.957Z,10.80
2019-04-21T00:19:09.072Z,15.07
2019-04-21T00:21:38.570Z,12.17
2019-04-21T00:24:25.105Z,14.00
2019-04-21T00:27:14.200Z,13.17
2019-04-21T00:29:33.988Z,11.83
2019-04-21T00:31:58.840Z,11.93
2019-04-21T00:34:15.191Z,11.13
2019-04-21T00:36:57.346Z,12.73
2019-04-21T00:39:45.046Z,13.63
2019-04-21T00:42:03.891Z,14.37
2019-04-21T00:44:24.560Z,13.53
2019-04-21T00:47:00.691Z,13.20
2019-04-21T00:49:31.129Z,11.37
2019-04-21T00:52:26.399Z,11.57
2019-04-21T00:55:18.774Z,12.90
2019-04-21T00:57:38.905Z,12.73
2019-04-21T01:00:08.855Z,13.17
2019-04-21T01:02:43.127Z,12.80
2019-04-21T01:05:08.721Z,11.80
2019-04-21T01:07:37.110Z,12.40
2019-04-21T01:09:58.966Z,15.03
2019-04-21T01:12:37.947Z,12.87
2019-04-21T01:15:12.573Z,11.17
2019-04-21T01:17:38.541Z,13.67
2019-04-21T01:19:58.436Z,13.37
2019-04-21T01:22:13.289Z,14.33
2019-04-21T01:24:45.260Z,14.17
2019-04-21T01:27:22.676Z,11.87
2019-04-21T01:30:02.983Z,12.33
2019-04-21T01:32:37.414Z,13.73
2019-04-21T01:35:02.647Z,12.40
2019-04-21T01:37:41.704Z,14.87
2019-04-21T01:40:14.349Z,15.00
2019-04-21T01:42:33.536Z,15.50
2019-04-21T01:45:02.340Z,16.47
2019-04-21T01:47:25.211Z,13.80
2019-04-21T01:49:52.774Z,19.50
2019-04-21T01:52:38.655Z,13.67
2019-04-21T01:55:15.409Z,13.50
2019-04-21T01:57:52.712Z,20.37
2019-04-21T02:00:13.408Z,14.63
2019-04-21T02:02:59.380Z,13.93
2019-04-21T02:05:31.076Z,13.40
2019-04-21T02:07:49.146Z,10.27
2019-04-21T02:10:35.327Z,18.43
2019-04-21T02:12:56.526Z,16.00
2019-04-21T02:15:32.575Z,12.50
2019-04-21T02:17:59.239Z,12.40
2019-04-21T02:20:17.905Z,13.90
2019-04-21T02:23:10.029Z,14.17
2019-04-21T02:25:31.709Z,13.67
2019-04-21T02:28:05.590Z,14.93
2019-04-21T02:31:02.981Z,13.77
2019-04-21T02:33:16.829Z,19.33
2019-04-21T02:35:50.859Z,15.60
2019-04-21T02:38:09.175Z,13.80
2019-04-21T02:40:47.948Z,13.00
2019-04-21T02:43:11.419Z,18.07
2019-04-21T02:45:38.208Z,15.07
2019-04-21T02:48:15.124Z,14.93
2019-04-21T02:50:36.209Z,14.97
2019-04-21T02:53:16.107Z,16.03
2019-04-21T02:55:42.322Z,21.13
2019-04-21T02:58:17.880Z,16.73
2019-04-21T03:01:09.277Z,17.10
2019-04-21T03:06:27.150Z,16.73
2019-04-21T03:08:44.281Z,17.50
2019-04-21T03:11:10.980Z,18.17
2019-04-21T03:13:42.938Z,22.93
2019-04-21T03:16:21.393Z,14.57
2019-04-21T03:18:45.940Z,15.30
2019-04-21T03:21:07.436Z,19.83
2019-04-21T03:26:20.703Z,14.67
2019-04-21T03:28:37.049Z,15.10
2019-04-21T03:38:47.314Z,15.17
2019-04-21T03:43:43.889Z,19.07
2019-04-21T03:46:05.909Z,14.90
2019-04-21T03:48:52.584Z,16.17
2019-04-21T03:51:12.128Z,18.60
2019-04-21T04:13:58.129Z,13.87
2019-04-21T04:16:20.097Z,16.93
2019-04-21T04:19:01.661Z,15.43
2019-04-21T04:21:30.282Z,14.60
2019-04-21T04:28:58.677Z,16.50
2019-04-21T04:31:25.820Z,16.40
2019-04-21T04:39:14.164Z,14.20
2019-04-21T04:41:34.967Z,16.07
2019-04-21T04:44:03.138Z,15.13
2019-04-21T04:46:29.354Z,17.57
2019-04-21T04:49:08.049Z,15.90
2019-04-21T04:51:36.485Z,17.00
2019-04-21T04:53:56.188Z,15.03
2019-04-21T04:56:38.366Z,14.00
2019-04-21T05:01:34.892Z,16.00
2019-04-21T05:06:42.395Z,19.00
2019-04-21T05:09:07.831Z,15.37
2019-04-21T05:19:10.082Z,13.43
2019-04-21T05:21:34.706Z,15.63
2019-04-21T05:23:48.401Z,16.53
2019-04-21T05:26:13.565Z,13.00
2019-04-21T05:28:40.876Z,19.50
2019-04-21T05:31:36.754Z,12.97
2019-04-21T05:34:10.739Z,12.50
2019-04-21T05:36:45.907Z,13.83
2019-04-21T05:39:19.971Z,13.93
2019-04-21T05:41:44.799Z,12.83
2019-04-21T05:44:29.179Z,12.30
2019-04-21T05:47:07.917Z,17.23
2019-04-21T05:49:27.998Z,12.90
2019-04-21T05:51:58.450Z,15.00
2019-04-21T05:57:00.079Z,13.43
2019-04-21T05:59:32.409Z,13.57
2019-04-21T06:02:14.683Z,15.30
2019-04-21T06:05:01.941Z,14.60
2019-04-21T06:07:13.934Z,12.63
2019-04-21T06:09:48.889Z,16.13
2019-04-21T06:12:10.026Z,16.93
2019-04-21T06:14:45.083Z,15.20
2019-04-21T06:17:10.999Z,13.60
2019-04-21T06:19:45.078Z,13.47
2019-04-21T06:22:10.476Z,11.67
2019-04-21T06:24:43.813Z,13.57
2019-04-21T06:27:08.208Z,13.83
2019-04-21T06:29:38.457Z,13.83
2019-04-21T06:34:53.493Z,15.77
2019-04-21T06:37:21.684Z,11.20
2019-04-21T06:39:56.300Z,12.50
2019-04-21T06:42:09.109Z,11.73
2019-04-21T06:44:41.018Z,11.53
2019-04-21T06:47:17.927Z,13.17
2019-04-21T06:49:36.877Z,18.60
2019-04-21T06:52:19.385Z,13.47
2019-04-21T06:54:42.242Z,14.60
2019-04-21T06:57:10.054Z,15.17
2019-04-21T06:59:32.576Z,11.07
2019-04-21T07:02:28.654Z,17.00
2019-04-21T07:07:05.107Z,13.50
2019-04-21T07:09:37.869Z,15.57
2019-04-21T07:12:07.470Z,14.00
2019-04-21T07:19:48.369Z,14.57
2019-04-21T07:22:11.088Z,14.00
2019-04-21T07:25:00.203Z,14.07
2019-04-21T07:27:10.257Z,14.20
2019-04-21T07:29:47.543Z,12.90
2019-04-21T07:32:11.810Z,14.93
2019-04-21T07:34:38.622Z,14.30
2019-04-21T07:37:05.982Z,12.37
2019-04-21T07:39:32.629Z,14.47
2019-04-21T07:42:04.876Z,13.37
2019-04-21T07:44:36.253Z,14.17
2019-04-21T07:47:11.832Z,13.13
2019-04-21T07:49:57.483Z,13.07
2019-04-21T07:52:55.131Z,13.10
2019-04-21T07:57:31.388Z,15.20
2019-04-21T08:00:16.196Z,12.67
2019-04-21T08:02:38.627Z,13.33
2019-04-21T08:05:23.891Z,12.10
2019-04-21T08:07:41.675Z,12.97
2019-04-21T08:10:03.204Z,15.00
2019-04-21T08:12:28.990Z,13.03
2019-04-21T08:15:09.665Z,12.43
2019-04-21T08:17:36.566Z,11.60
2019-04-21T08:20:01.021Z,16.80
2019-04-21T08:22:32.106Z,13.37
2019-04-21T08:25:05.728Z,9.97
2019-04-21T08:27:35.157Z,9.87
2019-04-21T08:30:09.562Z,15.23
2019-04-21T08:32:49.538Z,15.58
2019-04-21T08:35:20.862Z,11.12
2019-04-21T08:37:32.843Z,18.32
2019-04-21T08:42:34.756Z,10.25
2019-04-21T08:45:07.900Z,11.53
2019-04-21T08:47:33.643Z,14.87
2019-04-21T08:50:00.688Z,10.60
2019-04-21T08:55:15.235Z,12.10
2019-04-21T08:57:53.792Z,12.58
2019-04-21T09:03:02.468Z,10.72
2019-04-21T09:05:23.387Z,9.88
2019-04-21T09:08:00.104Z,9.53
2019-04-21T09:10:29.042Z,12.33
2019-04-21T09:12:52.067Z,10.00
2019-04-21T09:15:25.247Z,13.98
2019-04-21T09:17:48.960Z,9.43
2019-04-21T09:20:32.827Z,9.33
2019-04-21T09:23:00.782Z,10.50
2019-04-21T09:25:37.301Z,13.00
2019-04-21T09:28:00.647Z,9.40
2019-04-21T09:30:10.896Z,11.08
2019-04-21T09:32:40.376Z,13.10
2019-04-21T09:35:12.461Z,7.62
2019-04-21T09:37:47.619Z,11.28
2019-04-21T09:40:09.028Z,7.90
2019-04-21T09:42:44.304Z,13.85
2019-04-21T09:45:10.031Z,8.58
2019-04-21T09:47:45.034Z,9.33
2019-04-21T09:50:09.585Z,10.15
2019-04-21T09:52:45.129Z,7.83
2019-04-21T09:55:14.346Z,8.00
2019-04-21T09:57:46.141Z,7.03
2019-04-21T10:00:15.164Z,8.45
2019-04-21T10:02:49.794Z,7.75
2019-04-21T10:05:09.942Z,12.10
2019-04-21T10:07:41.964Z,12.37
2019-04-21T10:10:08.771Z,8.90
2019-04-21T10:12:37.411Z,8.78
2019-04-21T10:15:06.741Z,10.38
2019-04-21T10:17:39.518Z,7.45
2019-04-21T10:20:09.535Z,8.68
2019-04-21T10:22:39.210Z,9.50
2019-04-21T10:25:10.471Z,7.97
2019-04-21T10:27:39.281Z,11.12
2019-04-21T10:30:09.980Z,9.43
2019-04-21T10:32:38.684Z,8.60
2019-04-21T10:35:08.655Z,7.70
2019-04-21T10:37:47.415Z,6.67
2019-04-21T10:40:09.559Z,8.05
2019-04-21T10:42:38.250Z,9.55
2019-04-21T10:45:07.478Z,11.48
2019-04-21T10:47:36.874Z,8.83
2019-04-21T10:50:08.743Z,8.18
2019-04-21T10:52:55.210Z,9.03
2019-04-21T10:55:41.790Z,9.15
2019-04-21T10:58:06.494Z,6.67
2019-04-21T11:00:36.353Z,7.17
2019-04-21T11:03:22.819Z,8.88
2019-04-21T11:05:52.712Z,7.90
2019-04-21T11:08:25.532Z,8.78
2019-04-21T11:10:51.958Z,7.15
2019-04-21T11:13:20.800Z,6.17
2019-04-21T11:15:49.315Z,7.25
2019-04-21T11:18:17.775Z,9.73
2019-04-21T11:20:46.927Z,10.23
2019-04-21T11:23:17.270Z,6.83
2019-04-21T11:25:46.205Z,8.40
2019-04-21T11:28:14.790Z,5.62
2019-04-21T11:30:44.523Z,10.88
2019-04-21T11:33:15.363Z,6.80
2019-04-21T11:35:43.681Z,7.97
2019-04-21T11:38:18.955Z,5.25
2019-04-21T11:40:43.843Z,6.83
2019-04-21T11:43:12.114Z,5.83
2019-04-21T11:45:40.642Z,5.30
2019-04-21T11:48:12.323Z,6.65
2019-04-21T11:50:41.317Z,5.83
2019-04-21T11:53:10.616Z,6.87
2019-04-21T11:55:42.959Z,8.40
2019-04-21T11:58:09.971Z,7.03
2019-04-21T12:00:38.375Z,8.30
2019-04-21T12:03:06.551Z,7.47
2019-04-21T12:05:35.224Z,6.57
2019-04-21T12:08:04.030Z,8.73
2019-04-21T12:10:33.377Z,7.70
2019-04-21T12:13:04.232Z,6.83
2019-04-21T12:15:31.569Z,5.90
2019-04-21T12:17:59.769Z,6.50
2019-04-21T12:20:28.600Z,8.00
2019-04-21T12:22:57.038Z,6.77
2019-04-21T12:25:27.258Z,9.07
2019-04-21T12:27:56.103Z,9.53
2019-04-21T12:30:24.814Z,8.10
2019-04-21T12:33:00.633Z,6.37
2019-04-21T12:35:29.795Z,9.60
2019-04-21T12:37:58.555Z,8.37
2019-04-21T12:40:28.348Z,6.80
2019-04-21T12:42:56.922Z,9.00
2019-04-21T12:45:26.073Z,10.70
2019-04-21T12:47:55.528Z,7.67
2019-04-21T12:50:24.018Z,6.30
2019-04-21T12:52:53.349Z,7.33
2019-04-21T12:55:26.162Z,8.13
2019-04-21T12:57:53.108Z,6.33
2019-04-21T13:00:22.804Z,8.67
2019-04-21T13:02:51.986Z,8.17
2019-04-21T13:05:20.302Z,7.37
2019-04-21T13:07:49.202Z,8.00
2019-04-21T13:10:20.186Z,7.37
2019-04-21T13:12:48.565Z,6.27
2019-04-21T13:15:17.840Z,7.37
2019-04-21T13:17:47.359Z,5.73
2019-04-21T13:20:17.052Z,8.87
2019-04-21T13:22:46.101Z,5.87
2019-04-21T13:25:15.939Z,7.80
2019-04-21T13:27:45.143Z,7.83
2019-04-21T13:30:15.450Z,8.10
2019-04-21T13:32:45.105Z,6.40
2019-04-21T13:35:15.054Z,8.17
2019-04-21T13:37:43.668Z,6.23
2019-04-21T13:40:51.737Z,5.33
2019-04-21T13:43:04.068Z,7.00
2019-04-21T13:45:32.307Z,5.50
2019-04-21T13:48:00.975Z,5.30
2019-04-21T13:50:29.360Z,6.15
2019-04-21T13:52:58.679Z,7.70
2019-04-21T13:55:27.871Z,9.38
2019-04-21T13:57:56.760Z,5.97
2019-04-21T14:00:25.190Z,5.67
2019-04-21T14:02:54.583Z,7.60
2019-04-21T14:05:24.432Z,5.17
2019-04-21T14:07:52.755Z,5.30
2019-04-21T14:10:21.875Z,8.58
2019-04-21T14:12:50.673Z,8.08
2019-04-21T14:15:20.245Z,9.68
2019-04-21T14:17:48.981Z,7.23
2019-04-21T14:20:17.630Z,6.67
2019-04-21T14:22:46.455Z,7.37
2019-04-21T14:25:15.925Z,5.35
2019-04-21T14:27:46.955Z,5.27
2019-04-21T14:30:14.629Z,7.62
2019-04-21T14:32:44.261Z,5.13
2019-04-21T14:35:14.686Z,5.67
2019-04-21T14:37:44.519Z,5.13
2019-04-21T14:40:20.123Z,10.13
2019-04-21T14:42:44.416Z,6.42
2019-04-21T14:45:14.557Z,7.58
2019-04-21T14:47:52.945Z,7.53
2019-04-21T14:50:22.310Z,7.80
2019-04-21T14:53:11.762Z,7.92
2019-04-21T14:55:41.778Z,5.95
2019-04-21T14:58:10.311Z,6.58
2019-04-21T15:00:53.430Z,8.13
2019-04-21T15:03:21.871Z,6.28
2019-04-21T15:05:51.444Z,6.90
2019-04-21T15:08:19.836Z,4.85
2019-04-21T15:10:49.341Z,5.35
2019-04-21T15:13:17.657Z,7.65
2019-04-21T15:15:45.875Z,7.60
2019-04-21T15:18:14.623Z,5.33
2019-04-21T15:20:45.645Z,5.10
2019-04-21T15:23:12.830Z,7.53
2019-04-21T15:25:41.930Z,4.80
2019-04-21T15:28:11.623Z,7.85
2019-04-21T15:30:40.795Z,5.60
2019-04-21T15:33:10.570Z,6.17
2019-04-21T15:35:39.067Z,7.53
2019-04-21T15:38:09.739Z,8.60
2019-04-21T15:40:46.744Z,6.85
2019-04-21T15:43:08.490Z,8.48
2019-04-21T15:45:37.158Z,6.53
2019-04-21T15:48:06.025Z,5.95
2019-04-21T15:50:35.587Z,6.05
2019-04-21T15:53:05.679Z,9.20
2019-04-21T15:55:44.871Z,7.67
2019-04-21T15:58:14.706Z,5.37
2019-04-21T16:00:44.742Z,14.77
2019-04-21T16:03:13.025Z,7.63
2019-04-21T16:05:42.596Z,4.57
2019-04-21T16:08:12.079Z,5.20
2019-04-21T16:10:48.283Z,6.23
2019-04-21T16:13:11.689Z,6.10
2019-04-21T16:15:40.913Z,5.83
2019-04-21T16:18:10.059Z,7.27
2019-04-21T16:20:39.753Z,6.93
2019-04-21T16:23:08.569Z,6.87
2019-04-21T16:25:37.028Z,7.83
2019-04-21T16:28:06.283Z,6.10
2019-04-21T16:30:34.458Z,6.43
2019-04-21T16:33:03.912Z,7.37
2019-04-21T16:35:33.705Z,7.03
2019-04-21T16:38:02.827Z,4.30
2019-04-21T16:40:43.280Z,4.33
2019-04-21T16:43:02.129Z,4.97
2019-04-21T16:45:30.747Z,4.60
2019-04-21T16:47:59.135Z,6.33
2019-04-21T16:50:27.956Z,6.17
2019-04-21T16:53:03.897Z,7.77
2019-04-21T16:55:37.161Z,4.30
2019-04-21T16:58:12.673Z,6.07
2019-04-21T17:00:46.035Z,5.23
2019-04-21T17:03:08.585Z,4.30
2019-04-21T17:05:38.095Z,3.90
2019-04-21T17:08:07.988Z,7.57
2019-04-21T17:10:36.659Z,4.60
2019-04-21T17:13:06.120Z,9.23
2019-04-21T17:15:51.497Z,6.83
2019-04-21T17:18:23.100Z,6.07
2019-04-21T17:20:44.983Z,4.80
2019-04-21T17:23:04.797Z,3.20
2019-04-21T17:25:34.047Z,4.80
2019-04-21T17:28:03.578Z,5.10
2019-04-21T17:30:32.593Z,6.93
2019-04-21T17:33:01.709Z,5.50
2019-04-21T17:35:31.145Z,7.47
2019-04-21T17:38:00.253Z,5.27
2019-04-21T17:40:30.066Z,3.87
2019-04-21T17:43:02.016Z,3.30
2019-04-21T17:45:28.970Z,3.43
2019-04-21T17:48:03.240Z,5.43
2019-04-21T17:50:43.781Z,3.70
2019-04-21T17:53:30.450Z,6.23
2019-04-21T17:56:16.404Z,4.37
2019-04-21T17:58:43.335Z,4.90
2019-04-21T18:06:05.048Z,10.57
2019-04-21T18:08:46.506Z,4.80
2019-04-21T18:11:03.608Z,6.23
2019-04-21T18:13:26.600Z,8.20
2019-04-21T18:16:08.226Z,3.53
2019-04-21T18:18:23.545Z,8.07
2019-04-21T18:20:55.003Z,4.87
2019-04-21T18:23:40.859Z,6.97
2019-04-21T18:26:02.943Z,5.00
2019-04-21T18:28:28.467Z,4.20
2019-04-21T18:30:58.438Z,4.63
2019-04-21T18:33:31.747Z,9.10
2019-04-21T18:36:00.265Z,6.90
2019-04-21T18:38:54.830Z,5.23
2019-04-21T18:41:03.838Z,6.17
2019-04-21T18:44:02.251Z,4.03
2019-04-21T18:46:34.124Z,7.30
2019-04-21T18:48:49.714Z,6.40
2019-04-21T18:51:20.161Z,6.87
2019-04-21T18:54:12.542Z,5.80
2019-04-21T18:56:20.902Z,4.87
2019-04-21T18:58:50.805Z,6.50
2019-04-21T19:01:25.960Z,6.57
2019-04-21T19:03:53.804Z,5.03
2019-04-21T19:06:32.171Z,8.23
2019-04-21T19:09:24.608Z,7.07
2019-04-21T19:11:34.706Z,6.33
2019-04-21T19:14:28.582Z,6.07
2019-04-21T19:16:49.682Z,5.30
2019-04-21T19:21:40.277Z,6.43
2019-04-21T19:26:54.396Z,5.07
2019-04-21T19:29:22.796Z,5.93
2019-04-21T19:31:46.616Z,5.90
2019-04-21T19:34:06.151Z,5.10
2019-04-21T19:36:29.141Z,5.53
2019-04-21T19:39:06.847Z,6.17
2019-04-21T19:41:41.173Z,11.13
2019-04-21T19:44:14.226Z,9.00
2019-04-21T19:46:40.865Z,14.53
2019-04-21T19:49:22.338Z,9.80
2019-04-21T19:51:41.127Z,11.83
2019-04-21T19:54:09.361Z,9.33
2019-04-21T19:56:26.382Z,8.87
2019-04-21T19:58:55.006Z,8.13
2019-04-21T20:01:23.584Z,9.20
2019-04-21T20:03:55.799Z,8.07
2019-04-21T20:06:44.105Z,11.80
2019-04-21T20:09:08.338Z,7.83
2019-04-21T20:11:38.726Z,7.70
2019-04-21T20:14:37.635Z,10.83
2019-04-21T20:16:41.310Z,7.17
2019-04-21T20:18:57.270Z,8.17
2019-04-21T20:21:22.816Z,11.40
2019-04-21T20:23:51.737Z,10.03
2019-04-21T20:26:23.132Z,9.80
2019-04-21T20:28:59.251Z,16.17
2019-04-21T20:31:36.484Z,9.57
2019-04-21T20:34:12.623Z,7.67
2019-04-21T20:36:41.876Z,9.43
2019-04-21T20:38:59.272Z,11.60
2019-04-21T20:41:32.218Z,10.20
2019-04-21T20:44:06.114Z,10.63
2019-04-21T20:46:36.604Z,8.43
2019-04-21T20:49:04.638Z,11.30
2019-04-21T20:51:40.434Z,9.63
2019-04-21T20:54:02.914Z,11.73
2019-04-21T20:56:37.029Z,10.40
2019-04-21T20:59:08.058Z,14.40
2019-04-21T21:01:34.754Z,12.73
2019-04-21T21:04:01.706Z,11.53
2019-04-21T21:06:35.243Z,12.17
2019-04-21T21:09:06.114Z,8.53
2019-04-21T21:11:45.218Z,11.63
2019-04-21T21:14:07.182Z,8.73
2019-04-21T21:16:45.018Z,9.30
2019-04-21T21:21:34.173Z,10.90
2019-04-21T21:24:06.826Z,10.07
2019-04-21T21:26:42.620Z,7.37
2019-04-21T21:29:01.935Z,6.60
2019-04-21T21:31:37.360Z,7.30
2019-04-21T21:34:09.555Z,7.70
2019-04-21T21:36:36.729Z,8.33
2019-04-21T21:39:06.028Z,10.20
2019-04-21T21:41:28.864Z,8.30
2019-04-21T21:43:58.144Z,8.13
2019-04-21T21:46:36.787Z,9.13
2019-04-21T21:49:01.294Z,7.70
2019-04-21T21:51:33.165Z,6.90
2019-04-21T21:53:48.629Z,7.90
2019-04-21T21:56:16.821Z,8.40
2019-04-21T21:58:47.895Z,9.87
2019-04-21T22:01:20.638Z,10.50
2019-04-21T22:03:47.248Z,10.13
2019-04-21T22:06:19.638Z,8.30
2019-04-21T22:08:46.138Z,12.63
2019-04-21T22:11:15.852Z,8.83
2019-04-21T22:13:54.584Z,8.60
2019-04-21T22:16:17.406Z,9.43
2019-04-21T22:19:04.544Z,8.80
2019-04-21T22:21:35.116Z,6.90
2019-04-21T22:23:54.974Z,7.50
2019-04-21T22:26:13.831Z,8.10
2019-04-21T22:28:43.460Z,11.50
2019-04-21T22:31:18.424Z,10.83
2019-04-21T22:33:49.422Z,7.33
2019-04-21T22:36:26.480Z,10.27
2019-04-21T22:38:59.896Z,7.57
2019-04-21T22:41:25.789Z,8.70
2019-04-21T22:43:44.550Z,8.57
2019-04-21T22:46:13.622Z,10.03
2019-04-21T22:48:45.349Z,8.40
2019-04-21T22:51:20.428Z,7.63
2019-04-21T22:53:46.485Z,9.37
2019-04-21T22:56:18.537Z,7.37
2019-04-21T22:58:44.018Z,7.43
2019-04-21T23:01:11.192Z,11.03
2019-04-21T23:03:46.753Z,9.73
2019-04-21T23:06:17.475Z,9.23
2019-04-21T23:08:42.413Z,7.97
2019-04-21T23:11:12.350Z,7.37
2019-04-21T23:13:40.293Z,7.53
2019-04-21T23:16:09.861Z,10.23
2019-04-21T23:18:51.643Z,10.10
2019-04-21T23:21:19.524Z,7.40
2019-04-21T23:23:57.203Z,7.00
2019-04-21T23:26:26.131Z,8.30
2019-04-21T23:28:59.901Z,8.37
2019-04-21T23:31:30.810Z,7.47
2019-04-21T23:33:38.406Z,8.70
2019-04-21T23:36:12.956Z,7.47
2019-04-21T23:38:43.519Z,11.10
2019-04-21T23:41:10.633Z,7.87
2019-04-21T23:43:37.187Z,10.33
2019-04-21T23:46:11.941Z,7.47
2019-04-21T23:48:55.994Z,8.67
2019-04-21T23:51:15.982Z,8.00
2019-04-21T23:53:37.489Z,8.23
2019-04-21T23:56:05.767Z,7.87
2019-04-21T23:58:36.288Z,9.37
